Time;durP1;ratioP1;P1;durP2;ratioP2;P2;SDS_P1;SDS_P2;PMS_P1;PMS_P2;Temp;Humidity;BMP_temperature;BMP_pressure;BME280_temperature;BME280_humidity;BME280_pressure;Samples;Min_cycle;Max_cycle;Signal;HPM_P1;HPM_P2
2022/01/05 00:01:47;;;;;;;;;0.00;0.00;;;;;20.89;41.34;100371.59;5068959;28;51234;-46
2022/01/05 00:04:12;;;;;;;;;2.00;2.00;;;;;20.87;41.54;100376.50;5062561;28;51286;-49
2022/01/05 00:06:37;;;;;;;;;1.00;0.25;;;;;20.87;41.41;100376.50;5060627;28;51138;-51
2022/01/05 00:09:03;;;;;;;;;2.50;2.00;;;;;20.86;41.35;100388.59;5063486;28;51074;-49
2022/01/05 00:11:28;;;;;;;;;1.00;1.00;;;;;20.84;41.26;100394.31;5068307;28;51336;-50
2022/01/05 00:13:56;;;;;;;;;0.00;0.00;;;;;20.84;41.68;100397.09;5067503;28;51514;-48
2022/01/05 00:16:21;;;;;;;;;0.50;0.50;;;;;20.83;41.36;100398.13;5064839;28;51791;-47
2022/01/05 00:18:46;;;;;;;;;1.00;1.00;;;;;20.82;41.37;100399.19;5064969;28;51139;-48
2022/01/05 00:21:11;;;;;;;;;1.00;1.00;;;;;20.80;41.40;100386.75;5067047;28;51147;-50
2022/01/05 00:23:37;;;;;;;;;1.75;1.75;;;;;20.79;41.56;100396.09;5065943;28;51272;-51
2022/01/05 00:26:03;;;;;;;;;1.75;1.75;;;;;20.79;41.18;100390.59;5071844;27;51105;-45
2022/01/05 00:28:29;;;;;;;;;1.00;1.00;;;;;20.78;41.47;100391.66;5063243;27;51045;-45
2022/01/05 00:30:54;;;;;;;;;1.00;1.00;;;;;20.75;41.69;100392.97;5066143;28;51116;-48
2022/01/05 00:33:19;;;;;;;;;0.50;0.00;;;;;20.74;41.20;100400.41;5066905;28;51344;-45
2022/01/05 00:35:45;;;;;;;;;1.00;1.00;;;;;20.73;41.60;100393.19;5060814;28;52024;-49
2022/01/05 00:38:10;;;;;;;;;0.00;0.00;;;;;20.72;41.18;100394.25;5067069;28;51107;-50
2022/01/05 00:40:35;;;;;;;;;0.00;0.00;;;;;20.71;41.68;100403.59;5061738;28;51220;-46
2022/01/05 00:43:01;;;;;;;;;0.00;0.00;;;;;20.71;41.21;100409.09;5065943;28;50947;-47
2022/01/05 00:45:26;;;;;;;;;1.75;0.00;;;;;20.70;41.64;100410.19;5063876;28;51698;-49
2022/01/05 00:47:51;;;;;;;;;0.25;0.25;;;;;20.70;41.59;100409.34;5063166;27;51076;-49
2022/01/05 00:50:17;;;;;;;;;1.25;0.75;;;;;20.68;41.12;100415.09;5062838;28;51191;-47
2022/01/05 00:52:42;;;;;;;;;0.00;0.00;;;;;20.67;41.39;100415.31;5070939;28;51127;-49
2022/01/05 00:55:08;;;;;;;;;0.00;0.00;;;;;20.66;41.23;100422.75;5067430;28;51169;-49
2022/01/05 00:57:33;;;;;;;;;1.00;1.00;;;;;20.65;41.60;100422.97;5066460;28;51048;-47
2022/01/05 00:59:58;;;;;;;;;1.00;1.00;;;;;20.64;41.33;100422.16;5065766;28;51096;-45
2022/01/05 01:02:24;;;;;;;;;1.00;1.00;;;;;20.63;41.62;100434.19;5058129;28;51012;-47
2022/01/05 01:04:49;;;;;;;;;1.00;0.00;;;;;20.63;41.66;100441.63;5066526;28;51859;-51
2022/01/05 01:07:15;;;;;;;;;1.00;0.00;;;;;20.61;41.42;100435.50;5067645;28;51242;-46
2022/01/05 01:09:40;;;;;;;;;0.75;0.75;;;;;20.60;41.16;100439.34;5064727;28;51150;-48
2022/01/05 01:12:06;;;;;;;;;2.00;1.00;;;;;20.58;40.97;100439.56;5067456;27;51209;-50
2022/01/05 01:14:32;;;;;;;;;0.00;0.00;;;;;20.58;41.38;100445.06;5058328;28;51865;-47
2022/01/05 01:16:57;;;;;;;;;1.00;1.00;;;;;20.57;41.23;100453.56;5072593;28;51117;-47
2022/01/05 01:19:22;;;;;;;;;0.00;0.00;;;;;20.55;41.23;100459.31;5064095;28;51070;-48
2022/01/05 01:21:48;;;;;;;;;2.25;1.00;;;;;20.55;41.53;100451.06;5069090;28;51338;-49
2022/01/05 01:24:13;;;;;;;;;1.00;1.00;;;;;20.55;41.52;100461.22;5058117;28;52613;-48
2022/01/05 01:26:38;;;;;;;;;3.00;1.00;;;;;20.55;41.55;100466.72;5070791;27;51092;-49
2022/01/05 01:29:04;;;;;;;;;0.75;0.75;;;;;20.53;41.33;100469.72;5066284;28;51591;-49
2022/01/05 01:31:29;;;;;;;;;1.00;1.00;;;;;20.53;40.90;100469.72;5064917;28;51218;-48
2022/01/05 01:33:55;;;;;;;;;0.25;0.25;;;;;20.52;41.38;100491.94;5071213;27;51775;-48
2022/01/05 01:36:20;;;;;;;;;0.00;0.00;;;;;20.51;41.30;100469.09;5065650;28;51207;-51
2022/01/05 01:38:46;;;;;;;;;0.00;0.00;;;;;20.50;41.31;100483.91;5062404;28;51240;-49
2022/01/05 01:41:11;;;;;;;;;3.00;1.00;;;;;20.49;41.56;100476.72;5068156;28;51072;-50
2022/01/05 01:43:38;;;;;;;;;0.50;0.00;;;;;20.49;41.09;100490.50;5067335;28;51074;-50
2022/01/05 01:46:05;;;;;;;;;0.50;0.50;;;;;20.48;41.13;100497.06;5076365;28;51222;-45
2022/01/05 01:48:31;;;;;;;;;1.00;1.00;;;;;20.47;41.49;100495.38;5064360;28;51039;-47
2022/01/05 01:50:56;;;;;;;;;1.75;1.00;;;;;20.46;41.51;100507.47;5068816;28;51338;-49
2022/01/05 01:53:22;;;;;;;;;2.25;1.00;;;;;20.45;41.33;100511.28;5073706;28;51227;-49
2022/01/05 01:55:49;;;;;;;;;2.00;2.00;;;;;20.44;41.44;100498.63;5063905;28;51457;-49
2022/01/05 01:58:14;;;;;;;;;0.00;0.00;;;;;20.43;41.18;100517.03;5069000;28;51190;-47
2022/01/05 02:00:40;;;;;;;;;0.00;0.00;;;;;20.43;41.43;100521.69;5067228;28;51365;-47
2022/01/05 02:03:06;;;;;;;;;2.25;0.25;;;;;20.41;41.46;100510.03;5065226;28;51793;-49
2022/01/05 02:05:31;;;;;;;;;0.00;0.00;;;;;20.40;41.41;100525.69;5066140;28;51142;-46
2022/01/05 02:07:56;;;;;;;;;0.00;0.00;;;;;20.40;41.08;100533.09;5070060;28;51156;-48
2022/01/05 02:10:22;;;;;;;;;1.75;0.00;;;;;20.39;41.19;100539.69;5068129;28;51144;-49
2022/01/05 02:12:50;;;;;;;;;2.50;2.25;;;;;20.38;41.17;100541.59;5070124;27;51246;-49
2022/01/05 02:15:16;;;;;;;;;1.25;1.25;;;;;20.37;41.03;100539.06;5060423;27;51010;-47
2022/01/05 02:18:09;;;;;;;;;1.00;1.00;;;;;20.35;41.40;100542.06;5067922;28;51133;-45
2022/01/05 02:20:34;;;;;;;;;1.25;0.50;;;;;20.35;41.24;100549.47;5077189;28;51269;-46
2022/01/05 02:23:00;;;;;;;;;0.00;0.00;;;;;20.34;41.43;100554.13;5066440;28;51108;-50
2022/01/05 02:25:26;;;;;;;;;2.00;0.50;;;;;20.34;41.29;100561.56;5073802;28;50891;-48
2022/01/05 02:27:55;;;;;;;;;2.00;1.00;;;;;20.32;41.17;100556.28;5071498;27;51161;-44
2022/01/05 02:30:27;;;;;;;;;0.50;0.25;;;;;20.31;40.92;100549.06;5068187;27;51128;-46
2022/01/05 02:32:52;;;;;;;;;0.75;0.00;;;;;20.31;41.43;100556.47;5065658;28;50947;-47
2022/01/05 02:35:18;;;;;;;;;2.00;1.00;;;;;20.30;41.27;100557.56;5066100;28;51110;-48
2022/01/05 02:37:45;;;;;;;;;0.00;0.00;;;;;20.29;41.38;100556.72;5065051;28;51166;-48
2022/01/05 02:40:15;;;;;;;;;0.00;0.00;;;;;20.29;41.17;100556.72;5066712;28;51147;-44
2022/01/05 02:42:40;;;;;;;;;1.00;0.00;;;;;20.29;41.33;100555.88;5063438;28;52407;-47
2022/01/05 02:45:07;;;;;;;;;0.00;0.00;;;;;20.28;41.29;100552.28;5059973;28;51068;-48
2022/01/05 02:47:32;;;;;;;;;0.50;0.00;;;;;20.27;41.06;100558.00;5066672;28;51097;-44
2022/01/05 02:49:58;;;;;;;;;1.00;0.00;;;;;20.27;41.42;100561.59;5060186;28;51133;-48
2022/01/05 02:52:24;;;;;;;;;1.00;0.00;;;;;20.26;41.55;100561.84;5064475;28;51244;-49
2022/01/05 02:54:49;;;;;;;;;1.00;1.00;;;;;20.25;41.39;100566.50;5065679;28;51095;-46
2022/01/05 02:57:15;;;;;;;;;2.00;0.00;;;;;20.24;41.13;100558.47;5072707;28;51064;-46
2022/01/05 02:59:40;;;;;;;;;0.50;0.50;;;;;20.23;41.00;100560.38;5066355;28;51217;-45
2022/01/05 03:02:05;;;;;;;;;2.00;0.50;;;;;20.23;41.24;100565.06;5061604;28;51863;-47
2022/01/05 03:04:31;;;;;;;;;1.25;0.50;;;;;20.22;41.45;100574.34;5057611;28;51071;-47
2022/01/05 03:06:56;;;;;;;;;0.75;0.75;;;;;20.22;41.48;100574.34;5072572;28;51129;-46
2022/01/05 03:09:22;;;;;;;;;2.00;0.00;;;;;20.21;41.06;100575.41;5065242;28;51162;-49
2022/01/05 03:11:47;;;;;;;;;1.00;1.00;;;;;20.20;41.50;100580.06;5065351;28;51903;-46
2022/01/05 03:14:12;;;;;;;;;1.00;1.00;;;;;20.19;41.14;100590.25;5060176;28;51039;-49
2022/01/05 03:16:37;;;;;;;;;0.25;0.00;;;;;20.19;41.29;100589.41;5072044;28;51144;-51
2022/01/05 03:19:03;;;;;;;;;0.75;0.75;;;;;20.18;41.15;100593.22;5067652;27;51311;-46
2022/01/05 03:21:28;;;;;;;;;1.00;1.00;;;;;20.17;41.28;100595.13;5067514;28;51694;-50
2022/01/05 03:23:54;;;;;;;;;4.00;1.00;;;;;20.17;41.49;100595.13;5071419;28;51048;-47
2022/01/05 03:26:19;;;;;;;;;0.25;0.25;;;;;20.16;41.02;100596.19;5070161;27;50986;-47
2022/01/05 03:28:45;;;;;;;;;1.00;0.00;;;;;20.15;41.33;100608.28;5068214;28;51074;-45
2022/01/05 03:31:10;;;;;;;;;0.50;0.00;;;;;20.15;41.15;100613.78;5066056;28;51122;-48
2022/01/05 03:33:35;;;;;;;;;0.00;0.00;;;;;20.13;41.22;100613.16;5064781;28;51094;-49
2022/01/05 03:36:01;;;;;;;;;0.75;0.00;;;;;20.13;41.24;100615.06;5061201;28;51261;-49
2022/01/05 03:38:28;;;;;;;;;0.00;0.00;;;;;20.12;41.23;100619.72;5065054;28;51352;-44
2022/01/05 03:40:54;;;;;;;;;0.00;0.00;;;;;20.12;41.40;100629.88;5071421;28;52124;-50
2022/01/05 03:43:20;;;;;;;;;0.00;0.00;;;;;20.11;41.23;100631.78;5063103;28;51036;-48
2022/01/05 03:45:45;;;;;;;;;1.75;0.25;;;;;20.09;40.94;100628.41;5065696;28;51134;-47
2022/01/05 03:48:14;;;;;;;;;0.00;0.00;;;;;20.10;41.00;100634.75;5067100;28;51186;-49
2022/01/05 03:50:41;;;;;;;;;1.50;0.50;;;;;20.08;41.13;100645.13;5062869;28;53879;-51
2022/01/05 03:53:07;;;;;;;;;0.00;0.00;;;;;20.08;41.04;100643.22;5071420;28;51251;-49
2022/01/05 03:55:34;;;;;;;;;0.50;0.00;;;;;20.07;40.98;100646.19;5062640;28;51405;-49
2022/01/05 03:58:00;;;;;;;;;0.00;0.00;;;;;20.07;41.12;100651.72;5068839;28;51319;-47
2022/01/05 04:00:28;;;;;;;;;1.00;0.50;;;;;20.06;41.34;100656.38;5069021;27;51328;-48
2022/01/05 04:02:53;;;;;;;;;1.00;1.00;;;;;20.05;41.28;100657.44;5066122;28;51362;-48
2022/01/05 04:05:19;;;;;;;;;1.00;1.00;;;;;20.05;41.04;100660.19;5060820;28;51490;-47
2022/01/05 04:07:44;;;;;;;;;0.75;0.00;;;;;20.03;41.09;100656.81;5068984;28;51390;-47
2022/01/05 04:10:10;;;;;;;;;2.50;0.00;;;;;20.04;41.33;100663.16;5064138;28;51040;-50
2022/01/05 04:12:35;;;;;;;;;0.75;0.75;;;;;20.03;41.04;100656.81;5066512;28;51109;-48
2022/01/05 04:15:01;;;;;;;;;0.00;0.00;;;;;20.02;40.92;100663.38;5063143;28;51481;-49
2022/01/05 04:17:26;;;;;;;;;0.75;0.00;;;;;20.02;41.29;100670.78;5068481;28;51212;-49
2022/01/05 04:19:51;;;;;;;;;1.25;0.00;;;;;20.01;41.16;100669.09;5068801;28;52021;-45
2022/01/05 04:22:17;;;;;;;;;0.75;0.00;;;;;19.99;41.17;100672.06;5066097;28;51125;-50
2022/01/05 04:24:42;;;;;;;;;0.00;0.00;;;;;19.99;41.00;100672.06;5064222;28;51273;-48
2022/01/05 04:27:08;;;;;;;;;0.75;0.75;;;;;19.99;40.97;100668.47;5073298;27;51315;-49
2022/01/05 04:29:33;;;;;;;;;0.00;0.00;;;;;19.98;40.92;100675.03;5066087;28;51146;-51
2022/01/05 04:32:00;;;;;;;;;2.00;1.00;;;;;19.99;41.21;100672.06;5059980;28;51195;-49
2022/01/05 04:34:25;;;;;;;;;1.00;1.00;;;;;19.97;41.15;100673.34;5063187;28;51667;-49
2022/01/05 04:36:51;;;;;;;;;1.75;0.25;;;;;19.97;40.93;100682.44;5065679;28;51188;-54
2022/01/05 04:39:16;;;;;;;;;0.75;0.00;;;;;19.96;40.95;100683.50;5069802;28;51059;-50
2022/01/05 04:41:41;;;;;;;;;0.25;0.00;;;;;19.95;41.14;100681.84;5066540;28;51465;-46
2022/01/05 04:44:07;;;;;;;;;2.00;1.00;;;;;19.95;41.03;100689.25;5061864;28;51344;-46
2022/01/05 04:46:32;;;;;;;;;0.00;0.00;;;;;19.94;40.99;100687.56;5068478;28;51299;-46
2022/01/05 04:48:57;;;;;;;;;0.75;0.75;;;;;19.93;41.30;100688.63;5066149;28;51831;-47
2022/01/05 04:51:23;;;;;;;;;0.00;0.00;;;;;19.92;41.01;100693.28;5061220;28;51154;-57
2022/01/05 04:53:48;;;;;;;;;0.00;0.00;;;;;19.93;41.22;100705.13;5066846;27;51057;-50
2022/01/05 04:56:14;;;;;;;;;0.25;0.00;;;;;19.92;41.15;100707.03;5059439;28;51118;-49
2022/01/05 04:58:39;;;;;;;;;1.00;1.00;;;;;19.91;41.07;100699.84;5065065;28;52099;-47
2022/01/05 05:01:04;;;;;;;;;2.00;0.00;;;;;19.91;41.26;100707.25;5070066;28;51246;-46
2022/01/05 05:03:29;;;;;;;;;0.00;0.00;;;;;19.90;40.92;100706.38;5067252;28;51143;-49
2022/01/05 05:05:55;;;;;;;;;2.00;0.00;;;;;19.90;41.19;100709.13;5066486;28;51111;-49
2022/01/05 05:08:20;;;;;;;;;0.00;0.00;;;;;19.89;40.92;100710.19;5065781;28;51968;-46
2022/01/05 05:10:46;;;;;;;;;0.00;0.00;;;;;19.87;41.17;100706.84;5070158;28;51096;-46
2022/01/05 05:13:12;;;;;;;;;0.50;0.25;;;;;19.87;40.94;100715.91;5069577;28;51309;-48
2022/01/05 05:15:39;;;;;;;;;0.00;0.00;;;;;19.86;41.18;100725.25;5075065;28;51108;-51
2022/01/05 05:18:05;;;;;;;;;0.00;0.00;;;;;19.87;41.17;100728.81;5066124;28;51203;-48
2022/01/05 05:20:32;;;;;;;;;1.50;0.25;;;;;19.86;41.00;100738.13;5070338;28;51139;-48
2022/01/05 05:22:58;;;;;;;;;0.00;0.00;;;;;19.85;41.33;100740.03;5068376;28;51225;-50
2022/01/05 05:25:23;;;;;;;;;1.00;1.00;;;;;19.85;41.10;100748.28;5064378;28;51134;-50
2022/01/05 05:27:48;;;;;;;;;0.00;0.00;;;;;19.84;41.22;100751.28;5073735;27;52788;-51
2022/01/05 05:30:13;;;;;;;;;1.00;0.00;;;;;19.84;40.97;100745.78;5059778;28;51022;-51
2022/01/05 05:32:39;;;;;;;;;0.00;0.00;;;;;19.84;41.09;100745.78;5063718;28;51243;-50
2022/01/05 05:35:05;;;;;;;;;1.00;0.00;;;;;19.82;40.84;100747.91;5068384;28;51114;-49
2022/01/05 05:37:30;;;;;;;;;1.50;1.00;;;;;19.81;41.26;100755.31;5065351;27;51896;-46
2022/01/05 05:39:56;;;;;;;;;0.00;0.00;;;;;19.81;41.19;100762.72;5065822;28;51110;-46
2022/01/05 05:42:22;;;;;;;;;0.00;0.00;;;;;19.80;41.21;100761.88;5073372;28;50976;-48
2022/01/05 05:44:48;;;;;;;;;0.00;0.00;;;;;19.81;41.03;100768.22;5069600;27;51154;-50
2022/01/05 05:47:13;;;;;;;;;1.25;0.00;;;;;19.79;41.02;100759.31;5067284;27;51926;-46
2022/01/05 05:49:38;;;;;;;;;0.25;0.25;;;;;19.79;40.92;100773.91;5065042;28;51333;-52
2022/01/05 05:52:04;;;;;;;;;0.75;0.25;;;;;19.78;41.29;100774.97;5066376;28;51163;-51
2022/01/05 05:54:30;;;;;;;;;2.00;0.00;;;;;19.78;41.07;100780.47;5066782;28;51263;-49
2022/01/05 05:56:55;;;;;;;;;0.00;0.00;;;;;19.78;41.31;100774.97;5065842;28;51185;-50
2022/01/05 05:59:21;;;;;;;;;0.00;0.00;;;;;19.76;41.04;100777.09;5062030;28;51100;-49
2022/01/05 06:01:46;;;;;;;;;0.25;0.25;;;;;19.76;40.93;100774.34;5063709;28;51132;-51
2022/01/05 06:04:12;;;;;;;;;0.00;0.00;;;;;19.75;40.97;100769.91;5069095;28;51473;-48
2022/01/05 06:06:37;;;;;;;;;0.00;0.00;;;;;19.76;41.10;100781.75;5067279;28;51810;-46
2022/01/05 06:09:02;;;;;;;;;0.00;0.00;;;;;19.75;40.96;100785.56;5067391;28;51088;-47
2022/01/05 06:11:28;;;;;;;;;0.50;0.50;;;;;19.75;41.11;100782.81;5075250;28;51102;-48
2022/01/05 06:13:54;;;;;;;;;3.25;0.25;;;;;19.75;41.10;100777.31;5066680;28;51426;-51
2022/01/05 06:16:21;;;;;;;;;2.00;0.00;;;;;19.73;41.00;100805.03;5066711;28;52682;-48
2022/01/05 06:18:47;;;;;;;;;0.50;0.50;;;;;19.73;39.90;100805.03;5065968;28;51368;-50
2022/01/05 06:21:12;;;;;;;;;2.00;1.25;;;;;19.71;38.51;100811.81;5066974;27;51294;-47
2022/01/05 06:23:38;;;;;;;;;1.50;1.00;;;;;19.65;37.95;100813.50;5069306;27;51523;-47
2022/01/05 06:26:03;;;;;;;;;2.00;2.00;;;;;19.60;37.55;100810.59;5066786;27;51014;-49
2022/01/05 06:28:28;;;;;;;;;2.00;2.00;;;;;19.54;36.25;100812.25;5073268;27;51192;-51
2022/01/05 06:30:54;;;;;;;;;1.00;1.00;;;;;19.49;36.37;100814.81;5065563;28;51536;-46
2022/01/05 06:33:19;;;;;;;;;2.00;1.50;;;;;19.42;36.22;100810.41;5064514;28;52163;-50
2022/01/05 06:35:44;;;;;;;;;1.75;1.00;;;;;19.36;35.55;100816.75;5064856;28;51844;-50
2022/01/05 06:38:10;;;;;;;;;3.75;1.00;;;;;19.29;35.78;100825.84;5055912;28;52498;-48
2022/01/05 06:40:36;;;;;;;;;2.75;1.75;;;;;19.21;35.79;100817.00;5059938;28;51180;-48
2022/01/05 06:43:02;;;;;;;;;1.00;1.00;;;;;19.15;35.72;100812.34;5064625;28;51072;-48
2022/01/05 06:45:27;;;;;;;;;1.00;0.75;;;;;19.16;36.43;100814.88;5058480;28;51120;-50
2022/01/05 06:47:53;;;;;;;;;1.00;1.00;;;;;19.20;36.39;100829.88;5067377;28;51102;-47
2022/01/05 06:50:18;;;;;;;;;0.00;0.00;;;;;19.26;36.94;100828.16;5065836;28;51224;-50
2022/01/05 06:52:44;;;;;;;;;2.75;0.25;;;;;19.33;37.28;100835.34;5072537;27;51401;-46
2022/01/05 06:55:10;;;;;;;;;2.00;0.25;;;;;19.41;37.24;100833.44;5075231;27;51893;-48
2022/01/05 06:57:40;;;;;;;;;3.00;2.00;;;;;19.49;37.27;100839.53;5060600;27;51521;-48
2022/01/05 07:00:10;;;;;;;;;0.25;0.25;;;;;19.58;38.02;100842.91;5060193;28;51127;-46
2022/01/05 07:02:36;;;;;;;;;1.25;1.25;;;;;19.66;37.86;100839.09;5075028;28;51189;-52
2022/01/05 07:05:01;;;;;;;;;1.75;0.00;;;;;19.74;38.24;100844.34;5063525;28;51883;-48
2022/01/05 07:07:27;;;;;;;;;0.50;0.50;;;;;19.80;38.31;100844.34;5065643;28;51253;-51
2022/01/05 07:09:52;;;;;;;;;1.00;0.00;;;;;19.88;38.52;100841.31;5062004;28;51046;-45
2022/01/05 07:12:17;;;;;;;;;1.00;1.00;;;;;19.96;38.84;100851.22;5058778;28;51161;-47
2022/01/05 07:14:43;;;;;;;;;1.00;1.00;;;;;20.04;38.75;100856.47;5062126;28;51711;-46
2022/01/05 07:17:08;;;;;;;;;3.00;1.50;;;;;20.11;38.80;100850.94;5067525;28;51151;-48
2022/01/05 07:19:33;;;;;;;;;0.00;0.00;;;;;20.21;39.18;100855.94;5062352;28;51076;-48
2022/01/05 07:21:59;;;;;;;;;1.00;1.00;;;;;20.25;39.05;100857.22;5066541;28;50927;-48
2022/01/05 07:24:24;;;;;;;;;0.00;0.00;;;;;20.31;39.63;100862.66;5059846;28;51271;-50
2022/01/05 07:26:49;;;;;;;;;0.00;0.00;;;;;20.33;39.60;100868.81;5066905;27;51110;-49
2022/01/05 07:29:16;;;;;;;;;0.25;0.00;;;;;20.35;39.96;100880.44;5065513;28;51430;-52
2022/01/05 07:31:42;;;;;;;;;1.00;1.00;;;;;20.36;40.70;100881.28;5057528;28;51064;-51
2022/01/05 07:34:08;;;;;;;;;0.50;0.00;;;;;20.36;40.47;100882.13;5058768;28;51203;-50
2022/01/05 07:36:34;;;;;;;;;2.00;0.25;;;;;20.39;40.32;100891.84;5068374;28;51388;-52
2022/01/05 07:39:02;;;;;;;;;0.00;0.00;;;;;20.40;40.07;100882.50;5059889;27;51153;-63
2022/01/05 07:41:27;;;;;;;;;2.25;2.00;;;;;20.41;40.27;100885.03;5065160;28;51032;-48
2022/01/05 07:43:52;;;;;;;;;1.25;1.25;;;;;20.44;40.21;100892.91;5062103;28;51052;-45
2022/01/05 07:46:18;;;;;;;;;3.00;0.25;;;;;20.50;40.33;100895.81;5056761;28;51310;-47
2022/01/05 07:48:43;;;;;;;;;2.00;1.25;;;;;20.54;40.95;100906.19;5055815;28;51160;-50
2022/01/05 07:51:09;;;;;;;;;1.00;1.00;;;;;20.56;40.66;100906.78;5058028;28;51558;-52
2022/01/05 07:53:34;;;;;;;;;1.50;0.50;;;;;20.57;40.71;100911.22;5061488;28;51097;-46
2022/01/05 07:55:59;;;;;;;;;2.25;0.75;;;;;20.56;40.33;100911.47;5058514;28;51141;-49
2022/01/05 07:58:27;;;;;;;;;1.00;1.00;;;;;20.54;40.18;100914.44;5062238;28;51411;-49
2022/01/05 08:00:52;;;;;;;;;2.50;1.00;;;;;20.49;40.45;100911.50;5059303;28;51207;-49
2022/01/05 08:03:18;;;;;;;;;2.75;1.50;;;;;20.47;40.45;100921.88;5060459;28;51134;-51
2022/01/05 08:05:44;;;;;;;;;2.00;1.00;;;;;20.41;40.63;100914.47;5063182;28;51249;-46
2022/01/05 08:08:09;;;;;;;;;3.00;1.00;;;;;20.36;40.49;100925.28;5064954;28;51341;-49
2022/01/05 08:10:35;;;;;;;;;3.00;1.00;;;;;20.33;40.74;100928.50;5066298;27;51347;-51
2022/01/05 08:13:00;;;;;;;;;2.00;2.00;;;;;20.28;40.70;100922.78;5067333;28;51003;-48
2022/01/05 08:15:25;;;;;;;;;2.50;1.00;;;;;20.25;40.69;100931.50;5072390;28;51569;-51
2022/01/05 08:17:51;;;;;;;;;4.00;1.75;;;;;20.20;40.74;100934.88;5066109;27;51156;-49
2022/01/05 08:20:16;;;;;;;;;1.00;1.00;;;;;20.18;41.01;100937.00;5064822;28;51110;-47
2022/01/05 08:22:44;;;;;;;;;1.75;1.75;;;;;20.18;40.68;100942.50;5070507;28;52202;-52
2022/01/05 08:25:16;;;;;;;;;1.00;1.00;;;;;20.15;40.82;100942.94;5066936;28;51454;-49
2022/01/05 08:27:46;;;;;;;;;4.00;1.00;;;;;20.14;41.02;100950.38;5078598;27;51002;-51
2022/01/05 08:30:23;;;;;;;;;0.75;0.75;;;;;20.11;41.24;100958.19;5068825;28;51274;-53
2022/01/05 08:32:52;;;;;;;;;1.00;1.00;;;;;20.08;40.83;100953.97;5064487;28;51859;-47
2022/01/05 08:35:19;;;;;;;;;3.50;3.50;;;;;20.07;41.21;100960.53;5062121;27;51388;-50
2022/01/05 08:37:46;;;;;;;;;1.00;0.00;;;;;20.06;41.23;100958.84;5067800;28;52476;-51
2022/01/05 08:40:14;;;;;;;;;1.00;1.00;;;;;20.05;41.00;100959.06;5066635;28;51324;-50
2022/01/05 08:42:40;;;;;;;;;3.00;1.25;;;;;20.03;41.07;100964.78;5061963;28;51095;-52
2022/01/05 08:45:07;;;;;;;;;1.00;1.00;;;;;20.00;41.03;100965.19;5061832;27;51066;-51
2022/01/05 08:47:33;;;;;;;;;2.00;2.00;;;;;19.99;41.20;100959.91;5065494;28;51219;-52
2022/01/05 08:49:58;;;;;;;;;2.25;1.50;;;;;19.97;41.37;100960.13;5068106;28;51321;-49
2022/01/05 08:52:24;;;;;;;;;2.00;1.25;;;;;19.97;41.06;100965.63;5057223;28;51395;-49
2022/01/05 08:54:50;;;;;;;;;1.75;1.50;;;;;19.95;41.21;100964.19;5062373;28;51513;-50
2022/01/05 08:57:16;;;;;;;;;2.00;2.00;;;;;19.92;41.54;100968.22;5059328;28;51635;-49
2022/01/05 08:59:43;;;;;;;;;1.00;1.00;;;;;19.90;41.58;100970.31;5066403;28;51148;-48
2022/01/05 09:02:08;;;;;;;;;2.00;1.75;;;;;19.88;41.41;100973.28;5058048;28;51064;-49
2022/01/05 09:04:34;;;;;;;;;4.00;1.50;;;;;19.87;41.32;100979.00;5068550;28;51147;-52
2022/01/05 09:07:00;;;;;;;;;1.50;1.50;;;;;19.87;41.12;100982.59;5059603;28;51267;-50
2022/01/05 09:09:25;;;;;;;;;1.25;1.25;;;;;19.87;40.95;100981.72;5061502;28;51155;-50
2022/01/05 09:11:51;;;;;;;;;3.00;1.25;;;;;19.85;41.20;100972.88;5059185;28;51095;-52
2022/01/05 09:14:16;;;;;;;;;1.00;1.00;;;;;19.85;40.96;100981.97;5065173;28;51277;-50
2022/01/05 09:16:41;;;;;;;;;0.75;0.75;;;;;19.84;41.27;100977.53;5064181;28;51240;-52
2022/01/05 09:19:07;;;;;;;;;0.75;0.75;;;;;19.83;41.11;100991.47;5063340;28;51104;-52
2022/01/05 09:21:32;;;;;;;;;1.75;1.00;;;;;19.84;41.09;101001.41;5061820;28;52646;-50
2022/01/05 09:23:57;;;;;;;;;0.50;0.00;;;;;19.82;41.28;100989.78;5063509;28;51068;-48
2022/01/05 09:26:24;;;;;;;;;3.25;2.00;;;;;19.81;41.44;100993.59;5065881;27;51587;-51
2022/01/05 09:28:49;;;;;;;;;3.00;0.00;;;;;19.78;41.54;100992.09;5072464;27;51004;-52
2022/01/05 09:31:15;;;;;;;;;1.25;1.00;;;;;19.75;41.57;101002.69;5065205;28;52002;-51
2022/01/05 09:33:40;;;;;;;;;1.25;1.00;;;;;19.75;41.44;101009.03;5056552;28;51159;-52
2022/01/05 09:36:14;;;;;;;;;2.00;0.00;;;;;19.74;41.25;101012.00;5064986;28;51477;-51
2022/01/05 09:44:07;;;;;;;;;1.25;1.25;;;;;19.73;41.32;101026.81;5063142;28;51456;-50
2022/01/05 09:46:55;;;;;;;;;1.00;1.00;;;;;19.72;41.34;101030.63;5061809;28;51326;-50
2022/01/05 09:49:34;;;;;;;;;1.00;1.00;;;;;19.71;41.52;101031.69;5063823;28;51418;-49
2022/01/05 09:52:09;;;;;;;;;2.75;1.00;;;;;19.70;41.56;101041.00;5067007;28;52058;-50
2022/01/05 09:54:36;;;;;;;;;0.50;0.50;;;;;19.70;41.67;101044.56;5071438;28;51377;-49
2022/01/05 09:57:03;;;;;;;;;2.25;1.25;;;;;19.69;41.30;101048.34;5068286;28;51255;-50
2022/01/05 09:59:32;;;;;;;;;2.00;2.00;;;;;19.68;41.56;101054.06;5068651;28;51412;-48
2022/01/05 10:01:57;;;;;;;;;2.75;1.00;;;;;19.68;41.52;101057.66;5066750;27;52173;-51
2022/01/05 10:04:24;;;;;;;;;0.00;0.00;;;;;19.67;41.56;101063.38;5062625;28;51160;-48
2022/01/05 10:06:49;;;;;;;;;0.75;0.75;;;;;19.67;41.26;101060.63;5066657;28;51190;-52
2022/01/05 10:09:15;;;;;;;;;2.00;2.00;;;;;19.66;41.37;101057.03;5070966;28;51239;-49
2022/01/05 10:11:40;;;;;;;;;3.00;0.50;;;;;19.65;41.34;101052.59;5063557;28;52193;-49
2022/01/05 10:14:06;;;;;;;;;1.75;1.75;;;;;19.65;41.31;101060.84;5062443;28;51053;-47
2022/01/05 10:16:32;;;;;;;;;1.25;0.75;;;;;19.65;41.38;101057.25;5069218;27;51336;-51
2022/01/05 10:18:57;;;;;;;;;3.00;1.25;;;;;19.66;41.44;101057.03;5072139;28;51091;-49
2022/01/05 10:21:23;;;;;;;;;0.75;0.75;;;;;19.66;41.56;101065.28;5074617;28;51711;-49
2022/01/05 10:23:51;;;;;;;;;2.25;2.25;;;;;19.66;41.48;101075.44;5066729;28;51288;-49
2022/01/05 10:26:27;;;;;;;;;2.00;2.00;;;;;19.67;41.36;101079.88;5064136;27;51202;-49
2022/01/05 10:28:59;;;;;;;;;1.00;1.00;;;;;19.67;41.56;101074.38;5073424;27;51237;-52
2022/01/05 10:31:28;;;;;;;;;3.00;1.00;;;;;19.65;41.64;101071.84;5064303;27;51257;-52
2022/01/05 10:33:54;;;;;;;;;3.25;1.50;;;;;19.66;41.70;101078.19;5060819;28;51488;-52
2022/01/05 10:36:19;;;;;;;;;2.00;2.00;;;;;19.67;41.47;101079.88;5062053;28;51116;-51
2022/01/05 10:39:11;;;;;;;;;2.00;2.00;;;;;19.68;41.83;101081.56;5065811;28;51318;-50
2022/01/05 10:41:37;;;;;;;;;1.50;1.50;;;;;19.68;41.50;101089.78;5055654;28;52250;-48
2022/01/05 10:44:19;;;;;;;;;2.00;2.00;;;;;19.68;41.60;101093.38;5063290;28;51171;-50
2022/01/05 10:46:49;;;;;;;;;2.00;1.75;;;;;19.68;41.20;101093.38;5063260;28;51128;-48
2022/01/05 10:49:32;;;;;;;;;1.25;0.75;;;;;19.71;41.37;101092.16;5062856;28;51170;-47
2022/01/05 10:52:22;;;;;;;;;1.00;1.00;;;;;19.72;41.26;101086.44;5062246;28;51894;-47
2022/01/05 10:54:48;;;;;;;;;2.50;2.50;;;;;19.72;41.56;101089.19;5068343;28;51295;-49
2022/01/05 10:57:14;;;;;;;;;1.00;1.00;;;;;19.72;41.05;101093.84;5066441;28;50946;-48
2022/01/05 10:59:44;;;;;;;;;2.00;1.00;;;;;19.71;41.61;101086.66;5061660;28;51256;-51
2022/01/05 11:02:25;;;;;;;;;2.50;2.50;;;;;19.72;41.50;101091.94;5058206;28;51789;-51
2022/01/05 11:05:14;;;;;;;;;2.50;2.50;;;;;19.72;41.61;101086.44;5062381;28;51171;-50
2022/01/05 11:07:42;;;;;;;;;1.75;1.75;;;;;19.73;41.14;101090.88;5061937;28;51231;-50
2022/01/05 11:10:09;;;;;;;;;3.50;2.00;;;;;19.73;41.02;101090.88;5057108;28;51092;-50
2022/01/05 11:12:38;;;;;;;;;3.50;1.25;;;;;19.74;41.15;101094.47;5062387;28;52764;-50
2022/01/05 11:15:30;;;;;;;;;1.00;1.00;;;;;19.75;41.21;101094.25;5064713;27;51263;-50
2022/01/05 11:18:16;;;;;;;;;2.00;2.00;;;;;19.76;41.11;101095.09;5064962;28;51104;-48
2022/01/05 11:20:52;;;;;;;;;3.00;2.00;;;;;19.75;41.48;101093.41;5070448;28;51300;-51
2022/01/05 11:23:23;;;;;;;;;2.00;1.75;;;;;19.73;41.80;101090.03;5063408;27;51501;-48
2022/01/05 11:25:50;;;;;;;;;1.00;1.00;;;;;19.75;41.51;101112.66;5075131;27;51335;-51
2022/01/05 11:28:17;;;;;;;;;1.75;1.75;;;;;19.75;41.28;101101.66;5063683;28;51120;-51